Kezdőlap
METAR-TAF:

METAR-TAF

Repülőterek :

Cortez, Colorado, Amerikai Egyesült Államok

földrajzi szélesség: 37-18-23N, földrajzi hosszúság: 108-37-32W, magasság: 1803 m

Jelenlegi meteorológiai megfigyelések

A jelentés 19 perccel ezelõtt készült, 04:53 UTC
Északkeleti szél 8 kt
Hőmérséklet 18°C
Páratartalom 77%
Légköri nyomás 1022 hPa
Látótávolság: 16.1 km
Kevés felhő 12000 lábon

METAR: KCEZ 220453Z AUTO 05008KT 10SM FEW120 18/14 A3019 RMK AO2 LTG DSNT SE SLP149 T01780139

Idő: 23:12 (05:12 UTC)


TAF: hiányzik

Meteorológiai megfigyelések és előrejelzések több, mint 4000 repülőtéren (METAR és TAF jelentéseket).

A térképen piros és sárga pontok jelzik az elérhető meteorológiai állomásokat.

Mozgassa az egeret a pont fölött, hogy megjelenjen az állomás neve.

Azután kattintson az időjárási megfigyelések és előrejelzések megtekintéséhez.

A térkép megváltoztatása: kattintson a fekete keresztel jelölt zöld gombra ráközelítéshez, a vonallal jelölt zöld gombra távolításhoz, vagy a zöld nyilakra a szomszédos térképek eléréséhez.


METAR-TAF: